Time;durP1;ratioP1;P1;durP2;ratioP2;P2;SDS_P1;SDS_P2;PMS_P1;PMS_P2;Temp;Humidity;BMP_temperature;BMP_pressure;BME280_temperature;BME280_humidity;BME280_pressure;Samples;Min_cycle;Max_cycle;Signal;HPM_P1;HPM_P2
2022/08/19 00:05:43;;;;;;;35.55;14.68;;;;;;;21.11;53.15;100160.91;4999823;28;20050;-90
2022/08/19 00:10:47;;;;;;;39.65;13.23;;;;;;;21.20;53.47;100182.97;4982313;28;20054;-93
2022/08/19 00:13:15;;;;;;;42.17;13.15;;;;;;;21.25;53.71;100196.56;5000066;28;20042;-89
2022/08/19 00:18:35;;;;;;;33.90;13.75;;;;;;;21.37;53.95;100229.06;4997390;28;20535;-96
2022/08/19 00:21:03;;;;;;;33.38;13.10;;;;;;;20.93;53.60;100161.72;5012151;28;20041;-89
2022/08/19 00:23:30;;;;;;;36.03;14.70;;;;;;;20.98;53.71;100165.00;4984453;28;20180;-89
2022/08/19 00:25:56;;;;;;;39.47;13.45;;;;;;;21.15;54.06;100204.69;4997706;28;20100;-88
2022/08/19 00:36:12;;;;;;;39.75;12.88;;;;;;;21.14;54.22;100208.63;5018833;28;20074;-92
2022/08/19 00:39:03;;;;;;;32.55;11.77;;;;;;;21.30;54.14;100237.22;4965385;28;20046;-89
2022/08/19 00:41:30;;;;;;;34.55;12.80;;;;;;;20.96;53.98;100197.91;4992951;28;20029;-89
2022/08/19 00:46:38;;;;;;;30.33;10.43;;;;;;;20.84;53.54;100186.91;5038566;28;20072;-89
2022/08/19 00:49:35;;;;;;;26.73;11.25;;;;;;;20.96;54.32;100211.00;5044267;28;20050;-88
2022/08/19 00:52:08;;;;;;;33.00;10.25;;;;;;;20.91;53.96;100205.72;5013689;28;20061;-96
2022/08/19 01:00:16;;;;;;;29.33;10.80;;;;;;;20.93;54.02;100233.97;4998127;28;20081;-88
2022/08/19 01:02:43;;;;;;;28.38;9.75;;;;;;;21.10;54.01;100278.88;5008250;28;20038;-89
2022/08/19 01:08:07;;;;;;;22.50;9.02;;;;;;;20.68;54.14;100211.94;5039105;28;20072;-96
2022/08/19 01:10:44;;;;;;;21.80;9.68;;;;;;;20.74;54.41;100221.59;5024695;28;20128;-88
2022/08/19 01:15:59;;;;;;;30.98;8.85;;;;;;;20.74;53.80;100243.84;5039567;28;20087;-90
2022/08/19 01:20:58;;;;;;;33.25;9.23;;;;;;;20.56;53.86;100209.22;5036518;28;20049;-96
2022/08/19 01:34:33;;;;;;;33.60;9.48;;;;;;;20.52;53.59;100222.22;5016787;28;20068;-90
2022/08/19 01:39:36;;;;;;;26.23;8.33;;;;;;;20.63;53.90;100231.66;5016874;28;20041;-88
2022/08/19 01:42:04;;;;;;;83.85;8.68;;;;;;;20.42;53.71;100202.13;5014151;28;20092;-96
2022/08/19 01:44:40;;;;;;;45.15;7.82;;;;;;;20.64;53.26;100222.94;5019342;28;20157;-91
2022/08/19 01:47:09;;;;;;;36.35;7.65;;;;;;;20.54;53.38;100190.16;5017672;28;20049;-88
2022/08/19 01:50:11;;;;;;;40.90;7.95;;;;;;;20.72;53.99;100237.03;5016320;28;20491;-88
2022/08/19 01:52:40;;;;;;;27.48;7.07;;;;;;;20.48;53.42;100199.09;4998473;28;20041;-88
2022/08/19 01:55:19;;;;;;;20.33;6.63;;;;;;;20.14;53.25;100163.31;5015005;28;20056;-89
2022/08/19 01:57:59;;;;;;;32.45;7.40;;;;;;;20.65;54.36;100257.09;5015509;28;20054;-95
2022/08/19 02:00:29;;;;;;;32.60;7.78;;;;;;;20.39;54.50;100241.72;5019717;28;20104;-89
2022/08/19 02:03:53;;;;;;;19.83;6.80;;;;;;;20.53;54.28;100271.88;5001774;28;20091;-96
2022/08/19 02:06:20;;;;;;;16.67;6.97;;;;;;;20.49;54.63;100265.38;4997007;28;20044;-96
2022/08/19 02:08:51;;;;;;;;;;;;;;;20.51;54.31;100273.41;5002885;28;20034;-89
2022/08/19 02:11:21;;;;;;;24.10;7.20;;;;;;;20.05;54.27;100204.31;4999801;28;20494;-88
2022/08/19 02:13:49;;;;;;;20.40;7.15;;;;;;;20.24;54.40;100239.75;5015453;28;20133;-88
2022/08/19 02:17:04;;;;;;;16.58;7.40;;;;;;;20.45;54.36;100277.56;5015412;28;20091;-88
2022/08/19 02:22:09;;;;;;;30.85;7.97;;;;;;;20.15;54.26;100236.31;5019167;28;20060;-96
2022/08/19 02:24:50;;;;;;;26.65;7.75;;;;;;;19.99;54.69;100210.47;4999621;28;20030;-88
2022/08/19 02:29:50;;;;;;;37.17;8.48;;;;;;;20.31;55.26;100283.56;5020093;28;20069;-89
2022/08/19 02:32:19;;;;;;;45.17;9.25;;;;;;;19.98;54.96;100239.41;5018649;28;20038;-87
2022/08/19 02:46:50;;;;;;;23.02;7.88;;;;;;;19.75;54.70;100220.53;5015440;28;20075;-88
2022/08/19 02:52:00;;;;;;;34.75;8.73;;;;;;;19.95;55.04;100255.59;5015031;28;20029;-90
2022/08/19 02:54:27;;;;;;;20.73;8.55;;;;;;;20.13;55.64;100297.75;5012851;28;20092;-89
2022/08/19 02:57:03;;;;;;;45.00;9.07;;;;;;;19.79;55.81;100257.50;4957891;28;20516;-88
2022/08/19 03:03:00;;;;;;;25.42;8.48;;;;;;;19.84;56.25;100273.13;4991078;28;20046;-87
2022/08/19 03:10:43;;;;;;;31.75;9.10;;;;;;;19.99;56.09;100296.53;4990604;28;20077;-89
2022/08/19 03:13:16;;;;;;;61.97;9.88;;;;;;;19.72;56.18;100268.41;4958495;28;20042;-88
2022/08/19 03:18:21;;;;;;;33.38;8.23;;;;;;;19.55;56.39;100232.59;4991251;28;20046;-88
2022/08/19 03:23:33;;;;;;;37.87;9.43;;;;;;;19.78;56.24;100255.91;5048779;22;20115;-88
2022/08/19 03:26:05;;;;;;;27.63;9.20;;;;;;;20.00;56.08;100298.97;5016625;28;20129;-89
2022/08/19 03:31:07;;;;;;;27.20;9.25;;;;;;;20.11;55.71;100294.50;5016939;28;20045;-89
2022/08/19 03:36:23;;;;;;;24.90;8.93;;;;;;;20.16;55.90;100291.50;5021385;28;20038;-89
2022/08/19 03:39:08;;;;;;;58.50;10.95;;;;;;;19.95;56.29;100254.78;5038866;22;20061;-89
2022/08/19 03:42:28;;;;;;;37.28;9.50;;;;;;;20.21;56.33;100292.41;5032016;22;20452;-89
2022/08/19 03:44:58;;;;;;;48.20;10.38;;;;;;;19.86;55.87;100241.06;5016740;28;20042;-95
2022/08/19 03:50:03;;;;;;;30.95;9.27;;;;;;;19.83;56.99;100247.31;5041616;28;20554;-96
2022/08/19 03:52:42;;;;;;;45.28;10.35;;;;;;;20.12;56.52;100281.44;5026724;28;20053;-88
2022/08/19 03:55:08;;;;;;;114.82;13.05;;;;;;;20.21;56.77;100295.97;5018080;28;20046;-88
2022/08/19 03:57:48;;;;;;;34.03;9.43;;;;;;;19.89;56.17;100245.91;5009476;28;20058;-90
2022/08/19 04:02:55;;;;;;;74.25;10.80;;;;;;;19.99;56.27;100254.88;5031236;28;20060;-89
2022/08/19 04:05:28;;;;;;;34.55;9.30;;;;;;;19.95;56.43;100236.16;4990165;28;20053;-94
2022/08/19 04:08:05;;;;;;;80.93;11.02;;;;;;;20.06;55.87;100246.75;5012675;22;20064;-90
2022/08/19 04:10:42;;;;;;;57.58;10.93;;;;;;;20.05;55.95;100234.84;5022219;28;20061;-91
2022/08/19 04:13:19;;;;;;;74.60;12.15;;;;;;;19.94;55.93;100217.09;5027230;28;20018;-89
2022/08/19 04:15:46;;;;;;;63.30;11.75;;;;;;;20.19;55.75;100251.09;5006377;28;20099;-89
2022/08/19 04:18:13;;;;;;;119.55;15.82;;;;;;;20.26;55.66;100261.59;5020888;28;20072;-87
2022/08/19 04:20:43;;;;;;;129.02;12.80;;;;;;;20.63;55.75;100306.69;5023797;28;20042;-89
2022/08/19 04:23:10;;;;;;;91.30;12.20;;;;;;;20.36;55.77;100264.66;5073250;23;20061;-88
2022/08/19 04:29:30;;;;;;;37.00;8.65;;;;;;;20.58;55.43;100262.47;4992586;28;20077;-89
2022/08/19 04:31:57;;;;;;;38.67;9.00;;;;;;;20.92;55.22;100305.41;5012663;28;20043;-87
2022/08/19 04:34:27;;;;;;;31.05;9.10;;;;;;;20.80;54.55;100267.41;4996811;28;20087;-87
2022/08/19 04:43:00;;;;;;;47.17;9.82;;;;;;;20.85;55.40;100271.88;5030632;28;20500;-89
2022/08/19 04:45:36;;;;;;;50.08;9.63;;;;;;;20.96;54.76;100291.59;5003404;28;20414;-90
2022/08/19 04:48:02;;;;;;;41.15;9.27;;;;;;;21.09;54.63;100318.16;5043740;22;20069;-86
2022/08/19 04:50:29;;;;;;;27.08;8.50;;;;;;;20.69;54.60;100255.22;5007540;28;20066;-87
2022/08/19 04:52:58;;;;;;;29.08;8.23;;;;;;;20.74;54.35;100257.72;5013683;23;20489;-88
2022/08/19 04:55:40;;;;;;;36.58;8.20;;;;;;;20.59;55.14;100241.84;5040346;28;20056;-86
2022/08/19 04:58:06;;;;;;;31.23;9.32;;;;;;;20.93;54.81;100284.81;5010454;28;20086;-88
2022/08/19 05:00:39;;;;;;;66.40;11.30;;;;;;;20.97;55.00;100285.69;5006187;28;20042;-90
2022/08/19 05:03:05;;;;;;;26.98;8.95;;;;;;;20.79;55.24;100257.44;5022792;28;20026;-89
2022/08/19 05:05:41;;;;;;;37.88;10.20;;;;;;;20.75;55.14;100251.00;5020908;28;20057;-88
2022/08/19 05:08:07;;;;;;;53.78;11.40;;;;;;;21.15;55.73;100307.56;5038772;28;20545;-87
2022/08/19 05:10:51;;;;;;;40.63;10.15;;;;;;;21.27;54.88;100322.19;5022034;28;20072;-86
2022/08/19 05:13:22;;;;;;;31.40;10.30;;;;;;;20.82;55.49;100239.25;5040540;28;20045;-88
2022/08/19 05:22:52;;;;;;;31.92;8.90;;;;;;;21.31;54.64;100269.41;4988656;28;20038;-91
2022/08/19 05:25:30;;;;;;;21.95;8.10;;;;;;;21.22;54.58;100241.00;4997464;28;20092;-86
2022/08/19 05:28:22;;;;;;;32.97;8.98;;;;;;;21.84;53.65;100327.47;5029569;23;20155;-88
2022/08/19 05:30:55;;;;;;;40.20;9.55;;;;;;;21.73;53.19;100288.28;5012844;23;20515;-95
2022/08/19 05:33:46;;;;;;;45.95;10.48;;;;;;;22.06;53.48;100326.75;4999701;28;20176;-88
2022/08/19 05:36:46;;;;;;;43.60;9.00;;;;;;;22.15;53.18;100327.38;4976020;28;20066;-87
2022/08/19 05:39:16;;;;;;;62.50;10.90;;;;;;;22.10;53.64;100297.00;4976118;28;20080;-89
2022/08/19 05:41:52;;;;;;;49.85;10.20;;;;;;;21.74;52.08;100229.44;5048456;22;20058;-91
2022/08/19 05:44:44;;;;;;;26.67;8.83;;;;;;;22.44;51.86;100320.38;4960902;28;20039;-90
2022/08/19 05:47:26;;;;;;;41.53;9.30;;;;;;;22.19;52.27;100269.75;4979814;28;20313;-90
2022/08/19 05:49:52;;;;;;;42.25;10.93;;;;;;;22.12;51.55;100249.28;4978336;28;20049;-88
2022/08/19 05:52:37;;;;;;;56.78;10.43;;;;;;;22.48;52.73;100284.22;4997300;28;20035;-90
2022/08/19 05:55:05;;;;;;;50.03;9.40;;;;;;;22.54;53.15;100268.00;4994560;23;20042;-89
2022/08/19 05:57:54;;;;;;;76.07;10.95;;;;;;;22.34;51.50;100234.63;4986984;28;20045;-91
2022/08/19 06:00:20;;;;;;;46.50;10.57;;;;;;;22.51;51.31;100267.56;5015118;23;20104;-89
2022/08/19 06:03:44;;;;;;;35.65;9.77;;;;;;;22.93;51.01;100327.28;5043114;28;20072;-85
2022/08/19 06:06:13;;;;;;;47.65;9.45;;;;;;;22.61;51.27;100265.34;5035742;28;20506;-87
2022/08/19 06:08:39;;;;;;;53.55;11.20;;;;;;;22.66;51.61;100262.25;5021516;28;20069;-89
2022/08/19 06:11:23;;;;;;;99.88;15.93;;;;;;;22.66;51.67;100256.69;4986505;28;20037;-88
2022/08/19 06:13:55;;;;;;;92.43;13.35;;;;;;;23.19;51.45;100324.53;5012476;23;20178;-89
2022/08/19 06:16:24;;;;;;;87.28;14.32;;;;;;;22.90;51.24;100272.22;5017092;22;20057;-90
2022/08/19 06:18:56;;;;;;;38.40;11.40;;;;;;;22.87;51.87;100259.81;4968930;28;20042;-94
2022/08/19 06:21:37;;;;;;;56.60;12.35;;;;;;;22.96;52.38;100268.78;5162629;22;20024;-89
2022/08/19 06:24:14;;;;;;;46.58;10.00;;;;;;;23.21;52.02;100310.19;5006393;28;20035;-91
2022/08/19 06:26:47;;;;;;;34.67;9.50;;;;;;;23.14;50.57;100302.50;4998615;28;20037;-88
2022/08/19 06:29:15;;;;;;;46.78;9.27;;;;;;;23.29;50.48;100328.66;5013903;28;20038;-89
2022/08/19 06:31:51;;;;;;;58.40;10.63;;;;;;;23.04;50.95;100297.56;4981046;28;20038;-88
2022/08/19 06:34:30;;;;;;;31.98;9.50;;;;;;;23.07;51.74;100290.44;5003736;28;20105;-87
2022/08/19 06:39:52;;;;;;;56.20;18.70;;;;;;;23.68;50.97;100346.03;4992208;28;20137;-90
2022/08/19 06:43:01;;;;;;;54.70;17.95;;;;;;;23.83;50.63;100335.88;4994794;28;20090;-90
2022/08/19 06:45:28;;;;;;;59.55;13.02;;;;;;;23.61;49.73;100292.88;4962093;28;20051;-90
2022/08/19 06:48:03;;;;;;;45.95;11.25;;;;;;;23.72;49.42;100306.22;4935083;29;20039;-88
2022/08/19 06:50:30;;;;;;;59.03;14.50;;;;;;;24.00;49.74;100340.06;4948732;28;20563;-90
2022/08/19 06:53:08;;;;;;;43.38;11.48;;;;;;;23.83;50.50;100284.81;4925864;28;20045;-91
2022/08/19 06:55:39;;;;;;;47.90;11.07;;;;;;;23.75;48.94;100238.44;4946465;28;20050;-93
2022/08/19 06:59:10;;;;;;;68.22;21.63;;;;;;;24.33;47.94;100304.94;4989483;23;20104;-92
2022/08/19 07:02:26;;;;;;;50.17;13.65;;;;;;;24.61;47.87;100332.47;5032288;28;20049;-92
2022/08/19 07:05:25;;;;;;;52.00;19.92;;;;;;;24.78;47.87;100333.81;4998957;28;20041;-90
2022/08/19 07:07:51;;;;;;;64.18;26.23;;;;;;;24.44;48.07;100264.00;5027977;28;20053;-87
2022/08/19 07:10:21;;;;;;;52.40;16.88;;;;;;;24.43;46.25;100256.78;5030769;28;20061;-87
2022/08/19 07:12:48;;;;;;;69.55;26.02;;;;;;;24.71;47.88;100286.22;5030582;28;20044;-85
2022/08/19 07:15:22;;;;;;;58.08;19.52;;;;;;;25.14;46.74;100329.38;5036235;28;20096;-87
2022/08/19 07:17:50;;;;;;;46.13;13.32;;;;;;;25.13;46.78;100321.34;5034410;28;20041;-84
2022/08/19 07:20:17;;;;;;;47.42;14.70;;;;;;;25.12;45.59;100302.97;5034477;28;20491;-92
2022/08/19 07:22:43;;;;;;;36.53;11.35;;;;;;;25.33;46.56;100330.31;5034264;28;20045;-84
2022/08/19 07:25:17;;;;;;;85.80;17.13;;;;;;;25.02;47.61;100298.88;5041739;28;20052;-89
2022/08/19 07:27:44;;;;;;;62.65;13.27;;;;;;;25.20;45.38;100318.63;5016927;28;20541;-80
2022/08/19 07:30:11;;;;;;;50.85;10.60;;;;;;;25.24;45.30;100327.88;5033346;28;20141;-81
2022/08/19 07:32:38;;;;;;;47.08;9.45;;;;;;;25.25;45.50;100329.47;5033849;28;20599;-81
2022/08/19 07:35:05;;;;;;;43.95;11.45;;;;;;;25.43;45.58;100336.00;5035032;28;20120;-85
2022/08/19 07:37:31;;;;;;;48.97;10.70;;;;;;;25.44;45.62;100315.22;5036144;28;20049;-86
2022/08/19 07:39:57;;;;;;;47.42;10.13;;;;;;;25.55;45.07;100330.06;5050964;28;20082;-90
2022/08/19 07:42:24;;;;;;;111.25;11.93;;;;;;;25.39;44.13;100325.97;5054680;28;20135;-83
2022/08/19 07:44:50;;;;;;;128.82;11.15;;;;;;;25.28;43.96;100323.88;5043453;28;20045;-83
2022/08/19 07:47:16;;;;;;;36.28;8.85;;;;;;;25.41;45.22;100306.78;5036648;28;20053;-84
2022/08/19 07:49:46;;;;;;;65.63;9.90;;;;;;;25.31;44.12;100308.31;5035782;28;20061;-82
2022/08/19 07:52:16;;;;;;;48.17;9.52;;;;;;;25.43;44.12;100290.38;5037322;28;20045;-91
2022/08/19 07:57:39;;;;;;;39.10;10.57;;;;;;;25.62;44.69;100326.50;5028728;28;20055;-86
2022/08/19 08:00:09;;;;;;;33.13;9.82;;;;;;;25.72;46.04;100308.16;4998937;28;20133;-86
2022/08/19 08:02:39;;;;;;;41.03;8.38;;;;;;;25.83;43.89;100331.47;5033986;28;20041;-86
2022/08/19 08:11:03;;;;;;;49.92;8.90;;;;;;;25.60;43.54;100333.72;5035045;28;20041;-88
2022/08/19 08:13:30;;;;;;;55.40;9.15;;;;;;;25.64;44.60;100326.94;5035464;28;20025;-84
2022/08/19 08:15:57;;;;;;;54.17;9.05;;;;;;;25.65;44.12;100328.53;5036672;28;20044;-87
2022/08/19 08:18:26;;;;;;;104.80;12.65;;;;;;;25.69;45.27;100332.16;5037533;28;20053;-91
2022/08/19 08:21:13;;;;;;;118.05;11.38;;;;;;;25.35;41.79;100266.34;5036349;28;20056;-89
2022/08/19 08:23:42;;;;;;;57.80;8.05;;;;;;;25.64;42.33;100329.75;4992853;28;20046;-83
2022/08/19 08:26:20;;;;;;;23.38;6.93;;;;;;;25.74;43.33;100331.00;4993885;28;20062;-95
2022/08/19 08:28:47;;;;;;;54.42;7.32;;;;;;;25.81;42.12;100333.06;4993374;28;20046;-85
2022/08/19 08:31:18;;;;;;;41.30;9.60;;;;;;;25.73;40.97;100316.19;4976642;28;20472;-90
2022/08/19 08:33:45;;;;;;;63.17;7.75;;;;;;;25.67;40.18;100302.94;4992348;28;20089;-89
2022/08/19 08:36:15;;;;;;;50.70;8.43;;;;;;;25.76;41.85;100331.38;4993560;28;20050;-85
2022/08/19 08:38:45;;;;;;;26.05;7.82;;;;;;;25.94;43.70;100323.94;4993450;28;20038;-85
2022/08/19 08:41:19;;;;;;;70.10;10.73;;;;;;;25.96;43.13;100315.94;4994495;28;20149;-88
2022/08/19 08:43:48;;;;;;;31.75;7.72;;;;;;;26.15;42.27;100330.81;4977175;28;20038;-84
2022/08/19 08:46:26;;;;;;;52.63;9.48;;;;;;;26.19;41.79;100334.44;4961177;28;20050;-93
2022/08/19 08:49:03;;;;;;;46.85;9.32;;;;;;;26.36;42.25;100324.50;4977050;28;20121;-86
2022/08/19 08:51:38;;;;;;;61.58;8.63;;;;;;;26.38;41.41;100347.31;5004671;28;20074;-91
2022/08/19 08:54:07;;;;;;;64.63;8.27;;;;;;;26.58;41.45;100351.41;5012242;28;20046;-91
2022/08/19 08:56:33;;;;;;;48.05;7.93;;;;;;;26.60;42.00;100326.59;4999752;28;20046;-83
2022/08/19 08:58:59;;;;;;;;;;;;;;;26.71;40.53;100337.81;4976643;28;20542;-84
2022/08/19 09:01:28;;;;;;;53.70;9.35;;;;;;;26.58;40.94;100331.78;5029472;28;19928;-84
2022/08/19 09:03:54;;;;;;;33.67;7.55;;;;;;;26.65;40.11;100342.22;5035138;28;20038;-85
2022/08/19 09:06:45;;;;;;;45.33;7.65;;;;;;;26.75;39.32;100340.63;5037569;28;20056;-93
2022/08/19 09:09:38;;;;;;;43.53;10.18;;;;;;;26.48;40.04;100304.50;5043775;28;20507;-84
2022/08/19 09:12:10;;;;;;;44.90;9.65;;;;;;;26.77;40.79;100318.59;5016828;28;20073;-85
2022/08/19 09:14:57;;;;;;;164.95;14.40;;;;;;;26.75;38.74;100347.03;5035313;28;20076;-89
2022/08/19 09:17:33;;;;;;;86.72;8.73;;;;;;;26.42;39.58;100292.06;5012746;28;20042;-84
2022/08/19 09:20:20;;;;;;;57.35;11.10;;;;;;;26.50;38.09;100335.78;5021109;28;20037;-84
2022/08/19 09:22:48;;;;;;;65.47;8.77;;;;;;;26.49;38.36;100345.41;5032367;28;20562;-84
2022/08/19 09:25:22;;;;;;;64.13;8.98;;;;;;;26.50;38.70;100334.97;5015636;28;20414;-85
2022/08/19 09:27:56;;;;;;;59.75;8.32;;;;;;;26.61;36.60;100344.22;5034279;28;20048;-85
2022/08/19 09:30:28;;;;;;;76.70;9.05;;;;;;;26.69;37.23;100360.66;5012662;28;20423;-83
2022/08/19 09:32:54;;;;;;;46.60;8.40;;;;;;;26.59;36.46;100316.56;5022036;28;20072;-84
2022/08/19 09:35:23;;;;;;;33.80;7.57;;;;;;;26.78;37.46;100345.44;5031016;28;20055;-84
2022/08/19 09:37:50;;;;;;;46.53;8.77;;;;;;;26.64;36.65;100323.78;5014327;28;20045;-86
2022/08/19 09:40:19;;;;;;;47.83;8.55;;;;;;;26.80;36.13;100335.44;5033081;28;20045;-84
2022/08/19 09:42:48;;;;;;;32.78;8.95;;;;;;;26.72;35.92;100305.75;5026323;28;20038;-83
2022/08/19 09:45:17;;;;;;;54.65;9.48;;;;;;;26.92;35.00;100331.41;5032751;28;20041;-84
2022/08/19 09:47:43;;;;;;;36.10;7.97;;;;;;;27.18;34.15;100363.94;5014667;28;20048;-82
2022/08/19 09:50:11;;;;;;;43.63;7.78;;;;;;;27.11;34.52;100349.88;5032640;28;20068;-84
2022/08/19 09:52:38;;;;;;;40.67;6.95;;;;;;;27.22;34.46;100364.78;5031484;28;20041;-83
2022/08/19 09:55:06;;;;;;;28.65;8.88;;;;;;;27.29;37.74;100350.72;5032546;28;20462;-83
2022/08/19 09:57:32;;;;;;;68.00;8.45;;;;;;;27.24;33.21;100364.34;5032204;28;20041;-83
2022/08/19 09:59:58;;;;;;;;;;;;;;;27.18;31.30;100372.38;5033556;28;20061;-84
2022/08/19 10:02:24;;;;;;;;;;;;;;;27.19;31.57;100364.78;5033676;28;19961;-82
2022/08/19 10:07:36;;;;;;;44.88;7.78;;;;;;;27.05;31.92;100357.09;5032134;28;20445;-86
2022/08/19 10:10:07;;;;;;;83.88;9.27;;;;;;;27.00;30.94;100352.69;5028620;28;20045;-82
2022/08/19 10:12:34;;;;;;;49.67;7.28;;;;;;;27.23;31.09;100374.78;5012307;28;20120;-87
2022/08/19 10:15:01;;;;;;;114.25;9.50;;;;;;;27.13;29.88;100353.13;5053184;28;20132;-84
2022/08/19 10:17:29;;;;;;;51.22;7.70;;;;;;;27.31;32.58;100367.97;5031891;28;20045;-83
2022/08/19 10:19:55;;;;;;;33.60;6.55;;;;;;;27.44;32.90;100371.16;5031935;28;20045;-81
2022/08/19 10:22:21;;;;;;;39.38;7.35;;;;;;;27.31;32.00;100353.91;5031344;28;20097;-84
2022/08/19 10:24:49;;;;;;;88.07;8.75;;;;;;;27.29;31.39;100367.56;5033661;28;20493;-84
2022/08/19 10:27:15;;;;;;;77.55;7.10;;;;;;;27.29;31.35;100378.00;5033043;28;20087;-87
2022/08/19 10:29:43;;;;;;;38.42;7.47;;;;;;;27.34;30.13;100371.97;5033370;28;20042;-89
2022/08/19 10:32:11;;;;;;;61.85;7.68;;;;;;;27.34;30.10;100367.16;5031708;28;20041;-85
2022/08/19 10:34:38;;;;;;;24.60;6.00;;;;;;;27.48;30.61;100366.34;5029955;28;20125;-88
2022/08/19 10:37:05;;;;;;;38.35;7.80;;;;;;;27.67;34.32;100384.00;5030351;28;20068;-86
2022/08/19 10:39:35;;;;;;;54.85;7.32;;;;;;;27.57;29.89;100352.69;5030849;28;20069;-83
2022/08/19 10:42:12;;;;;;;36.33;6.55;;;;;;;27.66;30.37;100373.97;5031325;28;20603;-88
2022/08/19 10:44:39;;;;;;;21.38;6.80;;;;;;;27.83;29.65;100382.38;5031158;28;20050;-83
2022/08/19 10:47:05;;;;;;;;;;;;;;;27.98;32.03;100368.28;5031550;28;20083;-83
2022/08/19 10:49:32;;;;;;;32.28;8.73;;;;;;;28.01;29.16;100370.28;5032046;28;19967;-83
2022/08/19 10:57:33;;;;;;;41.88;8.15;;;;;;;27.75;30.90;100354.66;5061454;28;20041;-86
2022/08/19 10:59:59;;;;;;;52.50;9.90;;;;;;;27.73;32.86;100371.94;5029736;28;20094;-84
2022/08/19 11:02:26;;;;;;;;;;;;;;;27.78;29.87;100374.38;5026121;28;20384;-86
2022/08/19 11:04:51;;;;;;;;;;;;;;;27.75;30.70;100391.19;5034179;28;19948;-80
2022/08/19 11:07:24;;;;;;;39.55;9.00;;;;;;;27.77;32.25;100386.00;5030345;28;19920;-82
2022/08/19 11:09:51;;;;;;;41.30;9.60;;;;;;;27.66;31.57;100377.56;5029482;28;20042;-82
2022/08/19 11:12:17;;;;;;;47.20;8.30;;;;;;;27.56;30.63;100382.00;5029176;28;20525;-80
2022/08/19 11:14:43;;;;;;;56.67;9.13;;;;;;;27.50;31.35;100372.38;5029693;28;20037;-80
2022/08/19 11:17:11;;;;;;;72.60;9.55;;;;;;;27.68;33.74;100389.19;5025948;28;20037;-81
2022/08/19 11:19:37;;;;;;;41.42;8.73;;;;;;;27.56;31.35;100365.16;5030121;28;20381;-84
2022/08/19 11:22:09;;;;;;;58.58;8.38;;;;;;;27.46;32.25;100360.34;5028584;28;20038;-80
2022/08/19 11:24:36;;;;;;;53.00;9.07;;;;;;;27.43;31.28;100360.34;5029164;28;20037;-81
2022/08/19 11:27:07;;;;;;;34.50;7.35;;;;;;;27.49;32.07;100372.78;5029638;28;20069;-82
2022/08/19 11:29:34;;;;;;;56.50;7.80;;;;;;;27.28;31.42;100363.16;5029956;28;20044;-81
2022/08/19 11:32:03;;;;;;;50.13;8.88;;;;;;;27.16;31.60;100350.34;5028430;28;20033;-81
2022/08/19 11:34:30;;;;;;;67.78;8.40;;;;;;;27.11;31.66;100367.53;5028546;28;20385;-80
2022/08/19 11:37:00;;;;;;;66.28;8.68;;;;;;;27.10;32.74;100357.50;5028505;28;20034;-82
2022/08/19 11:39:28;;;;;;;99.13;9.43;;;;;;;27.18;33.14;100369.56;5011779;28;20130;-82
2022/08/19 11:41:59;;;;;;;31.17;6.53;;;;;;;27.14;31.71;100358.34;5029496;28;20033;-84
2022/08/19 11:44:26;;;;;;;42.38;7.85;;;;;;;27.17;32.58;100362.34;5013478;28;20045;-83
2022/08/19 11:46:52;;;;;;;89.13;9.40;;;;;;;27.26;33.06;100364.78;5030345;28;20037;-85
2022/08/19 11:49:20;;;;;;;37.67;7.07;;;;;;;27.35;33.82;100363.16;5032116;28;20442;-84
2022/08/19 11:51:49;;;;;;;76.60;9.60;;;;;;;27.36;32.61;100361.16;5032040;28;20044;-89
2022/08/19 11:54:17;;;;;;;67.63;9.68;;;;;;;27.45;33.23;100369.16;5015948;28;20522;-81
2022/08/19 11:56:45;;;;;;;59.70;9.20;;;;;;;27.27;32.53;100339.09;5031433;28;20044;-83
2022/08/19 11:59:12;;;;;;;57.25;8.40;;;;;;;27.45;34.37;100352.31;5034068;28;20090;-84
2022/08/19 12:01:40;;;;;;;;;;;;;;;27.32;32.42;100358.34;5033559;28;20037;-83
2022/08/19 12:04:06;;;;;;;47.70;9.80;;;;;;;27.29;33.86;100361.97;5034854;28;20386;-80
2022/08/19 12:06:34;;;;;;;36.88;7.35;;;;;;;27.52;33.23;100358.75;5034438;28;20053;-79
2022/08/19 12:09:04;;;;;;;54.83;8.75;;;;;;;27.63;33.84;100355.91;5034742;28;20049;-83
2022/08/19 12:11:33;;;;;;;52.75;9.05;;;;;;;27.77;34.08;100353.09;5033094;28;20594;-85
2022/08/19 12:13:59;;;;;;;67.13;9.77;;;;;;;27.73;32.86;100329.78;5033544;28;20073;-83
2022/08/19 12:16:27;;;;;;;53.00;10.15;;;;;;;27.87;33.14;100348.66;5066693;28;20037;-84
2022/08/19 12:18:55;;;;;;;60.45;7.05;;;;;;;27.87;32.89;100349.44;5016937;28;20123;-84
2022/08/19 12:24:34;;;;;;;68.70;11.30;;;;;;;27.84;32.52;100344.63;5033074;28;20084;-91
2022/08/19 12:27:04;;;;;;;58.42;8.43;;;;;;;27.65;32.58;100308.56;4967527;28;20046;-95
2022/08/19 12:29:32;;;;;;;46.17;7.53;;;;;;;27.75;32.92;100310.53;4998226;28;20123;-89
2022/08/19 12:32:00;;;;;;;79.15;8.60;;;;;;;27.91;32.88;100331.78;4997947;28;20042;-85
2022/08/19 12:34:30;;;;;;;39.50;6.82;;;;;;;27.58;33.02;100333.81;5010775;28;20111;-87
2022/08/19 12:36:58;;;;;;;94.70;9.25;;;;;;;27.50;32.78;100335.06;4995934;28;20057;-89
2022/08/19 12:39:31;;;;;;;94.28;9.77;;;;;;;27.76;33.45;100371.16;4995944;28;20053;-90
2022/08/19 12:41:57;;;;;;;45.63;7.38;;;;;;;27.66;33.40;100337.44;4980745;28;20046;-86
2022/08/19 12:47:54;;;;;;;21.27;7.22;;;;;;;27.50;33.02;100265.63;4992533;28;20105;-87
2022/08/19 12:50:21;;;;;;;;;;;;;;;27.86;32.11;100361.09;4985763;28;20075;-88
2022/08/19 12:52:53;;;;;;;92.75;8.90;;;;;;;27.61;33.76;100325.38;5014650;28;19925;-86
2022/08/19 12:55:24;;;;;;;49.97;8.85;;;;;;;27.65;33.58;100339.47;4997759;28;20050;-88
2022/08/19 12:57:51;;;;;;;124.03;11.13;;;;;;;27.36;33.63;100319.84;4964137;28;20034;-88
2022/08/19 13:00:21;;;;;;;63.95;8.50;;;;;;;27.56;33.15;100327.84;4981178;28;20050;-90
2022/08/19 13:02:50;;;;;;;104.80;10.75;;;;;;;27.51;33.30;100300.94;4998878;28;20157;-88
2022/08/19 13:05:22;;;;;;;47.90;8.90;;;;;;;27.49;34.31;100325.03;5017034;28;20037;-87
2022/08/19 13:08:01;;;;;;;68.97;9.45;;;;;;;27.41;34.38;100338.28;5016337;28;20041;-88
2022/08/19 13:10:36;;;;;;;48.30;8.73;;;;;;;27.39;33.72;100341.50;5035481;28;20087;-89
2022/08/19 13:13:05;;;;;;;49.00;7.93;;;;;;;27.45;34.71;100360.72;5033462;28;20080;-87
2022/08/19 13:15:39;;;;;;;78.35;8.77;;;;;;;27.21;34.16;100323.06;5036019;28;20041;-89
2022/08/19 13:18:06;;;;;;;33.45;8.00;;;;;;;27.22;32.73;100339.50;5016406;28;20095;-87
2022/08/19 13:20:40;;;;;;;33.28;7.95;;;;;;;27.08;34.34;100317.00;5016163;28;20071;-89
2022/08/19 13:23:08;;;;;;;59.60;9.43;;;;;;;26.96;35.28;100335.06;5032662;28;20045;-89
2022/08/19 13:25:36;;;;;;;37.58;9.90;;;;;;;26.99;34.37;100353.91;5015782;28;20396;-91
2022/08/19 13:28:06;;;;;;;41.05;10.43;;;;;;;27.02;34.88;100358.72;5032278;28;20053;-89
2022/08/19 13:34:12;;;;;;;59.63;15.43;;;;;;;27.14;34.76;100383.59;5027114;28;20049;-86
2022/08/19 13:36:38;;;;;;;51.58;15.18;;;;;;;26.92;34.89;100331.41;5000710;28;20046;-86
2022/08/19 13:39:07;;;;;;;34.80;14.55;;;;;;;27.32;34.60;100394.06;5041196;28;20475;-90
2022/08/19 13:41:34;;;;;;;41.88;14.75;;;;;;;27.13;34.23;100331.47;5052427;28;20128;-89
2022/08/19 13:44:02;;;;;;;48.33;15.30;;;;;;;27.51;35.75;100379.59;5053645;28;20100;-89
2022/08/19 13:46:41;;;;;;;41.45;14.07;;;;;;;27.50;34.56;100385.63;5017719;28;20072;-89
2022/08/19 13:49:12;;;;;;;54.50;25.35;;;;;;;27.32;33.92;100380.03;5034679;28;20051;-90
2022/08/19 13:51:40;;;;;;;120.03;31.13;;;;;;;27.22;34.52;100381.63;5018107;28;20045;-89
2022/08/19 13:54:08;;;;;;;52.33;26.10;;;;;;;27.06;34.13;100355.91;5034597;28;20048;-89
2022/08/19 13:56:35;;;;;;;49.95;26.23;;;;;;;27.26;34.56;100399.25;5018684;28;20424;-89
2022/08/19 13:59:10;;;;;;;100.03;23.83;;;;;;;27.09;35.34;100383.97;5019079;28;20056;-89